Time;durP1;ratioP1;P1;durP2;ratioP2;P2;SDS_P1;SDS_P2;PMS_P1;PMS_P2;Temp;Humidity;BMP_temperature;BMP_pressure;BME280_temperature;BME280_humidity;BME280_pressure;Samples;Min_cycle;Max_cycle;Signal;HPM_P1;HPM_P2
2023/12/08 00:02:10;;;;;;;1.17;1.17;;;;;;;3.12;100.00;100535.06;5016064;28;20255;-73
2023/12/08 00:04:37;;;;;;;1.10;1.10;;;;;;;2.97;100.00;100535.16;5016817;28;20688;-73
2023/12/08 00:07:05;;;;;;;0.90;0.90;;;;;;;2.99;100.00;100527.56;5016331;28;20592;-73
2023/12/08 00:09:32;;;;;;;0.80;0.80;;;;;;;2.94;100.00;100534.13;4978478;28;20201;-73
2023/12/08 00:11:59;;;;;;;1.00;1.00;;;;;;;2.78;100.00;100534.13;5011677;28;20246;-73
2023/12/08 00:14:26;;;;;;;0.80;0.80;;;;;;;2.70;100.00;100543.06;5016345;28;20233;-73
2023/12/08 00:16:52;;;;;;;0.90;0.90;;;;;;;2.80;100.00;100547.88;5016243;28;20200;-73
2023/12/08 00:19:19;;;;;;;1.30;1.30;;;;;;;2.62;100.00;100549.47;5014062;28;20228;-73
2023/12/08 00:21:46;;;;;;;1.20;1.20;;;;;;;2.50;100.00;100514.72;5016493;28;20267;-73
2023/12/08 00:24:14;;;;;;;1.10;1.10;;;;;;;2.84;100.00;100542.13;4982102;28;20296;-73
2023/12/08 00:26:41;;;;;;;2.60;2.40;;;;;;;2.68;100.00;100539.53;5016239;28;20207;-73
2023/12/08 00:29:07;;;;;;;0.90;0.90;;;;;;;2.69;100.00;100543.88;5016149;28;20201;-73
2023/12/08 00:31:34;;;;;;;1.00;1.00;;;;;;;2.58;100.00;100542.41;5014986;28;20196;-73
2023/12/08 00:34:01;;;;;;;1.87;1.70;;;;;;;1.59;100.00;100369.91;5016505;28;20225;-73
2023/12/08 00:36:28;;;;;;;0.80;0.80;;;;;;;2.43;100.00;100484.50;5016477;28;20200;-74
2023/12/08 00:38:55;;;;;;;1.00;1.00;;;;;;;2.63;100.00;100525.63;5016226;28;20259;-73
2023/12/08 00:41:24;;;;;;;1.20;1.20;;;;;;;2.81;100.00;100527.50;5016437;28;20692;-73
2023/12/08 00:43:50;;;;;;;1.03;1.03;;;;;;;2.93;100.00;100535.78;5016035;28;20230;-73
2023/12/08 00:46:17;;;;;;;0.90;0.90;;;;;;;2.80;100.00;100509.47;5013391;28;20196;-73
2023/12/08 00:48:44;;;;;;;0.73;0.73;;;;;;;2.94;100.00;100534.13;5013235;28;20681;-73
2023/12/08 00:51:13;;;;;;;1.50;1.50;;;;;;;2.92;100.00;100499.88;5013397;28;20227;-73
2023/12/08 00:53:40;;;;;;;2.83;1.37;;;;;;;3.03;100.00;100519.25;5012475;28;20616;-73
2023/12/08 00:56:07;;;;;;;1.53;1.53;;;;;;;2.72;100.00;100470.66;5013203;28;20677;-74
2023/12/08 00:58:35;;;;;;;0.90;0.90;;;;;;;2.94;100.00;100544.38;5012572;28;20209;-73
2023/12/08 01:01:02;;;;;;;1.30;1.30;;;;;;;2.87;100.00;100537.16;5012954;28;20201;-73
2023/12/08 01:03:29;;;;;;;1.20;1.20;;;;;;;2.83;100.00;100540.34;5012816;28;20639;-73
2023/12/08 01:05:56;;;;;;;1.10;1.10;;;;;;;2.95;100.00;100541.00;5012883;28;20208;-75
2023/12/08 01:08:22;;;;;;;1.20;1.20;;;;;;;2.88;100.00;100516.78;4993333;28;20235;-74
2023/12/08 01:10:49;;;;;;;0.90;0.90;;;;;;;3.10;100.00;100540.94;5012910;28;20197;-74
2023/12/08 01:13:16;;;;;;;0.90;0.90;;;;;;;3.08;100.00;100538.28;5012430;28;20220;-74
2023/12/08 01:15:44;;;;;;;0.90;0.90;;;;;;;3.01;100.00;100543.88;5012429;28;20204;-74
2023/12/08 01:18:11;;;;;;;1.73;1.63;;;;;;;2.75;100.00;100536.50;5012434;28;20596;-74
2023/12/08 01:20:38;;;;;;;1.00;1.00;;;;;;;2.89;100.00;100535.59;4978423;28;20208;-74
2023/12/08 01:23:04;;;;;;;0.83;0.83;;;;;;;2.75;100.00;100513.47;4992828;28;20213;-74
2023/12/08 01:25:31;;;;;;;0.90;0.90;;;;;;;2.61;100.00;100522.97;5003887;28;20209;-74
2023/12/08 01:27:58;;;;;;;1.83;1.83;;;;;;;2.73;100.00;100548.34;5012269;28;20576;-74
2023/12/08 01:30:25;;;;;;;1.20;1.20;;;;;;;2.85;100.00;100547.31;5012121;28;20201;-75
2023/12/08 01:32:53;;;;;;;1.00;1.00;;;;;;;2.97;100.00;100554.75;5009465;28;20205;-75
2023/12/08 01:35:20;;;;;;;0.90;0.90;;;;;;;2.72;100.00;100546.59;4994015;28;20197;-74
2023/12/08 01:37:46;;;;;;;1.47;1.47;;;;;;;2.65;100.00;100536.81;5012304;28;20209;-74
2023/12/08 01:40:13;;;;;;;1.30;1.30;;;;;;;2.35;100.00;100502.81;5010000;28;20197;-74
2023/12/08 01:42:40;;;;;;;2.03;1.93;;;;;;;2.69;100.00;100531.94;5011765;28;20204;-74
2023/12/08 01:45:08;;;;;;;1.37;1.33;;;;;;;2.71;100.00;100539.72;4977783;28;20280;-74
2023/12/08 01:47:35;;;;;;;1.10;1.10;;;;;;;2.52;100.00;100532.75;5009683;28;20247;-74
2023/12/08 01:50:05;;;;;;;1.00;1.00;;;;;;;2.71;100.00;100535.47;5012270;28;20204;-74
2023/12/08 01:52:32;;;;;;;1.20;1.20;;;;;;;2.49;100.00;100482.28;4993275;28;20196;-74
2023/12/08 01:55:00;;;;;;;0.90;0.90;;;;;;;2.87;100.00;100535.47;5012160;28;20693;-74
2023/12/08 01:57:27;;;;;;;1.73;1.63;;;;;;;2.69;100.00;100531.94;5011540;28;20263;-74
2023/12/08 01:59:55;;;;;;;1.27;1.27;;;;;;;2.69;100.00;100533.63;5012043;28;20200;-74
2023/12/08 02:02:22;;;;;;;0.90;0.90;;;;;;;2.73;100.00;100527.88;5010616;28;20219;-75
2023/12/08 02:04:50;;;;;;;1.00;1.00;;;;;;;2.86;100.00;100533.72;5011742;28;20200;-74
2023/12/08 02:07:18;;;;;;;0.90;0.90;;;;;;;2.91;100.00;100533.97;5011851;28;20197;-74
2023/12/08 02:09:45;;;;;;;1.00;1.00;;;;;;;2.90;100.00;100532.19;5011500;28;20197;-74
2023/12/08 02:12:12;;;;;;;0.80;0.80;;;;;;;2.98;100.00;100533.50;5011526;28;20193;-74
2023/12/08 02:14:39;;;;;;;1.00;1.00;;;;;;;2.81;100.00;100506.13;5010801;28;20219;-74
2023/12/08 02:17:12;;;;;;;1.23;1.23;;;;;;;3.07;100.00;100533.09;5010406;28;20212;-75
2023/12/08 02:19:41;;;;;;;0.80;0.80;;;;;;;3.08;100.00;100533.16;5011003;28;20235;-75
2023/12/08 02:22:08;;;;;;;2.90;2.10;;;;;;;3.08;100.00;100529.72;5011192;28;20200;-75
2023/12/08 02:24:36;;;;;;;1.00;1.00;;;;;;;3.00;100.00;100526.75;5011570;28;20693;-74
2023/12/08 02:27:03;;;;;;;0.90;0.90;;;;;;;2.96;100.00;100522.28;5011117;28;20196;-75
2023/12/08 02:29:30;;;;;;;1.47;1.47;;;;;;;2.79;100.00;100500.91;5010888;28;20203;-74
2023/12/08 02:32:01;;;;;;;0.80;0.80;;;;;;;3.04;100.00;100531.22;5010499;28;20604;-74
2023/12/08 02:34:31;;;;;;;0.70;0.70;;;;;;;3.06;100.00;100539.91;5010728;28;20229;-74
2023/12/08 02:37:00;;;;;;;0.70;0.70;;;;;;;3.15;100.00;100542.91;4992794;28;20205;-74
2023/12/08 02:39:28;;;;;;;0.80;0.80;;;;;;;3.17;100.00;100532.75;5008414;28;20232;-74
2023/12/08 02:41:56;;;;;;;1.10;1.10;;;;;;;3.06;100.00;100542.47;5011437;28;20201;-74
2023/12/08 02:44:23;;;;;;;0.80;0.80;;;;;;;3.11;100.00;100528.19;5010906;28;20614;-74
2023/12/08 02:46:50;;;;;;;0.80;0.80;;;;;;;3.20;100.00;100543.16;5011158;28;20219;-74
2023/12/08 02:49:17;;;;;;;0.90;0.90;;;;;;;3.30;100.00;100547.94;5010977;28;20686;-74
2023/12/08 02:51:44;;;;;;;1.20;1.20;;;;;;;3.37;100.00;100538.09;5010607;28;20669;-74
2023/12/08 02:54:11;;;;;;;1.37;1.37;;;;;;;3.35;100.00;100539.69;5010936;28;20216;-75
2023/12/08 02:56:37;;;;;;;1.97;1.87;;;;;;;3.35;100.00;100534.56;4992485;28;20205;-74
2023/12/08 02:59:05;;;;;;;2.00;1.53;;;;;;;3.37;100.00;100530.41;5010829;28;20211;-75
2023/12/08 03:01:32;;;;;;;1.77;1.67;;;;;;;3.35;100.00;100526.00;5010398;28;20259;-74
2023/12/08 03:03:59;;;;;;;0.80;0.80;;;;;;;3.30;100.00;100525.78;5010543;28;20209;-75
2023/12/08 03:06:26;;;;;;;0.80;0.80;;;;;;;3.26;100.00;100528.97;4992676;28;20200;-74
2023/12/08 03:08:52;;;;;;;1.23;1.23;;;;;;;2.96;100.00;100528.28;4991559;28;20204;-75
2023/12/08 03:11:19;;;;;;;0.90;0.90;;;;;;;3.09;100.00;100534.94;5010591;28;20215;-74
2023/12/08 03:13:46;;;;;;;1.30;1.30;;;;;;;3.06;100.00;100534.78;5010029;28;20232;-75
2023/12/08 03:16:14;;;;;;;0.80;0.80;;;;;;;3.02;100.00;100537.97;5010783;28;20294;-74
2023/12/08 03:18:41;;;;;;;1.33;1.33;;;;;;;2.99;100.00;100543.81;5010347;28;20224;-74
2023/12/08 03:21:08;;;;;;;3.20;2.10;;;;;;;2.92;100.00;100551.09;5013127;28;20203;-74
2023/12/08 03:23:35;;;;;;;0.70;0.70;;;;;;;3.12;100.00;100544.44;5009905;28;20626;-75
2023/12/08 03:26:02;;;;;;;0.90;0.90;;;;;;;3.22;100.00;100547.56;5010369;28;20236;-75
2023/12/08 03:28:28;;;;;;;1.03;1.03;;;;;;;3.27;100.00;100541.00;5010354;28;20700;-74
2023/12/08 03:30:55;;;;;;;1.00;1.00;;;;;;;2.90;100.00;100506.59;5010932;28;20657;-74
2023/12/08 03:33:23;;;;;;;0.80;0.80;;;;;;;3.23;100.00;100548.44;5019003;28;20208;-74
2023/12/08 03:35:50;;;;;;;0.70;0.70;;;;;;;3.20;100.00;100543.16;5009843;28;20232;-74
2023/12/08 03:38:17;;;;;;;2.30;1.53;;;;;;;3.29;100.00;100552.19;5007325;28;20193;-75
2023/12/08 03:40:44;;;;;;;1.20;1.20;;;;;;;3.20;100.00;100549.16;5009927;28;20204;-74
2023/12/08 03:43:10;;;;;;;1.20;1.20;;;;;;;3.29;100.00;100544.50;5009814;28;20205;-74
2023/12/08 03:45:37;;;;;;;1.53;1.53;;;;;;;3.25;100.00;100552.81;4990761;28;20208;-75
2023/12/08 03:48:04;;;;;;;0.83;0.83;;;;;;;3.42;100.00;100552.00;5009543;28;20208;-74
2023/12/08 03:50:32;;;;;;;0.90;0.90;;;;;;;3.61;100.00;100558.06;5009778;28;20201;-74
2023/12/08 03:52:59;;;;;;;1.50;1.50;;;;;;;3.67;100.00;100558.38;5010468;28;20211;-74
2023/12/08 03:55:26;;;;;;;0.80;0.80;;;;;;;3.72;100.00;100551.78;5015949;28;20220;-73
2023/12/08 03:57:52;;;;;;;1.33;1.33;;;;;;;3.80;100.00;100555.59;4991698;28;20208;-74
2023/12/08 04:00:20;;;;;;;1.00;1.00;;;;;;;3.82;100.00;100554.00;5009867;28;20779;-73
2023/12/08 04:02:46;;;;;;;0.90;0.90;;;;;;;3.77;100.00;100551.22;5009461;28;20232;-74
2023/12/08 04:05:13;;;;;;;0.70;0.70;;;;;;;3.65;100.00;100529.22;4975483;28;20212;-74
2023/12/08 04:07:41;;;;;;;1.27;1.27;;;;;;;3.84;100.00;100544.72;5009546;28;20204;-74
2023/12/08 04:10:09;;;;;;;1.00;1.00;;;;;;;4.09;100.00;100542.53;5010203;28;20200;-75
2023/12/08 04:12:36;;;;;;;0.80;0.80;;;;;;;3.91;100.00;100531.38;5010041;28;20201;-73
2023/12/08 04:15:03;;;;;;;1.10;1.10;;;;;;;3.93;100.00;100547.69;4995563;28;20614;-73
2023/12/08 04:17:29;;;;;;;1.43;1.33;;;;;;;3.89;100.00;100545.78;5012542;28;20197;-75
2023/12/08 04:19:56;;;;;;;1.00;1.00;;;;;;;3.70;100.00;100517.50;5010586;28;20236;-72
2023/12/08 04:22:23;;;;;;;0.93;0.93;;;;;;;3.83;100.00;100546.38;5012886;28;20696;-74
2023/12/08 04:24:51;;;;;;;0.90;0.90;;;;;;;3.88;100.00;100544.94;5013851;28;20207;-74
2023/12/08 04:27:18;;;;;;;0.80;0.80;;;;;;;3.87;100.00;100547.41;5013447;28;20208;-74
2023/12/08 04:29:45;;;;;;;1.30;1.20;;;;;;;3.82;100.00;100528.34;4995085;28;20669;-74
2023/12/08 04:32:11;;;;;;;0.80;0.80;;;;;;;4.02;100.00;100545.59;5013827;28;20597;-74
2023/12/08 04:34:38;;;;;;;1.13;1.13;;;;;;;4.00;100.00;100544.63;5011295;28;20212;-74
2023/12/08 04:37:05;;;;;;;0.90;0.90;;;;;;;3.94;100.00;100546.91;5012739;28;20205;-75
2023/12/08 04:39:32;;;;;;;0.97;0.97;;;;;;;3.77;100.00;100529.81;5020792;28;20200;-73
2023/12/08 04:42:01;;;;;;;1.00;1.00;;;;;;;3.95;100.00;100551.25;5028973;28;20201;-75
2023/12/08 04:44:27;;;;;;;0.90;0.90;;;;;;;3.90;100.00;100555.25;5013119;28;20197;-75
2023/12/08 04:46:54;;;;;;;0.90;0.90;;;;;;;3.79;100.00;100529.09;5012751;28;20203;-75
2023/12/08 04:49:21;;;;;;;0.97;0.97;;;;;;;3.88;100.00;100544.94;5013058;28;20197;-75
2023/12/08 04:51:48;;;;;;;0.80;0.80;;;;;;;3.82;100.00;100548.84;5013214;28;20216;-74
2023/12/08 04:54:14;;;;;;;2.73;1.40;;;;;;;3.79;100.00;100556.41;5013151;28;20231;-74
2023/12/08 04:56:41;;;;;;;1.17;1.17;;;;;;;3.79;100.00;100551.28;5012717;28;20197;-75
2023/12/08 04:59:10;;;;;;;0.90;0.90;;;;;;;3.79;100.00;100556.41;5012980;28;20587;-73
2023/12/08 05:01:37;;;;;;;0.80;0.80;;;;;;;3.52;100.00;100553.38;5012900;28;20593;-73
2023/12/08 05:04:04;;;;;;;1.57;1.57;;;;;;;3.31;100.00;100550.59;5014410;28;20200;-76
2023/12/08 05:06:30;;;;;;;1.50;1.50;;;;;;;3.33;100.00;100564.38;5014330;28;20208;-75
2023/12/08 05:08:57;;;;;;;1.50;1.50;;;;;;;3.34;100.00;100563.56;5013045;28;20212;-76
2023/12/08 05:11:24;;;;;;;0.90;0.90;;;;;;;3.11;100.00;100566.59;4978417;28;20197;-76
2023/12/08 05:13:51;;;;;;;1.77;1.77;;;;;;;2.97;100.00;100576.13;5012342;28;20209;-76
2023/12/08 05:16:19;;;;;;;0.90;0.90;;;;;;;3.00;100.00;100573.72;5012637;28;20223;-73
2023/12/08 05:18:46;;;;;;;0.80;0.80;;;;;;;2.97;100.00;100570.13;5012706;28;20243;-74
2023/12/08 05:21:13;;;;;;;1.57;1.47;;;;;;;3.05;100.00;100566.31;5012680;28;20661;-75
2023/12/08 05:23:41;;;;;;;0.80;0.80;;;;;;;2.99;100.00;100574.56;5012228;28;20677;-74
2023/12/08 05:26:08;;;;;;;0.90;0.90;;;;;;;2.92;100.00;100566.47;5012613;28;20196;-76
2023/12/08 05:28:35;;;;;;;0.93;0.93;;;;;;;2.78;100.00;100573.38;5012481;28;20270;-74
2023/12/08 05:31:02;;;;;;;1.60;1.60;;;;;;;2.71;100.00;100571.31;5009366;28;20732;-74
2023/12/08 05:33:30;;;;;;;1.60;1.60;;;;;;;2.81;100.00;100567.56;5011499;28;20216;-77
2023/12/08 05:35:56;;;;;;;1.40;1.40;;;;;;;2.65;100.00;100537.69;5012066;28;20235;-76
2023/12/08 05:38:23;;;;;;;0.80;0.80;;;;;;;2.71;100.00;100565.31;4996426;28;20205;-76
2023/12/08 05:40:50;;;;;;;0.70;0.70;;;;;;;2.81;100.00;100560.78;5012361;28;20205;-77
2023/12/08 05:43:17;;;;;;;0.80;0.80;;;;;;;2.38;100.00;100534.56;5011882;28;20205;-76
2023/12/08 05:45:44;;;;;;;1.10;1.10;;;;;;;2.52;100.00;100565.13;5012075;28;20236;-75
2023/12/08 05:48:10;;;;;;;2.70;1.33;;;;;;;2.14;100.00;100497.38;5011887;28;20251;-76
2023/12/08 05:50:39;;;;;;;2.10;2.00;;;;;;;2.70;100.00;100567.00;5011890;28;20205;-74
2023/12/08 05:53:06;;;;;;;1.07;1.07;;;;;;;2.41;100.00;100550.06;5011635;28;20197;-75
2023/12/08 05:55:33;;;;;;;2.30;2.13;;;;;;;2.55;100.00;100570.41;5011467;28;20698;-74
2023/12/08 05:57:59;;;;;;;0.97;0.97;;;;;;;2.42;100.00;100577.44;4993349;28;20201;-74
2023/12/08 06:00:26;;;;;;;1.23;1.23;;;;;;;2.54;100.00;100573.75;5011734;28;20208;-75
2023/12/08 06:02:53;;;;;;;1.10;1.10;;;;;;;2.62;100.00;100569.94;5012102;28;20213;-76
2023/12/08 06:05:20;;;;;;;0.90;0.90;;;;;;;2.64;100.00;100578.59;5007805;28;20228;-77
2023/12/08 06:07:48;;;;;;;1.83;1.83;;;;;;;2.67;100.00;100578.75;5011787;28;20640;-75
2023/12/08 06:10:16;;;;;;;9.73;7.90;;;;;;;2.97;100.00;100571.03;5011524;28;20308;-78
2023/12/08 06:12:42;;;;;;;2.63;2.27;;;;;;;2.99;100.00;100573.66;4991557;28;20626;-77
2023/12/08 06:15:11;;;;;;;0.80;0.80;;;;;;;3.08;100.00;100571.56;5009762;28;20280;-77
2023/12/08 06:17:37;;;;;;;1.57;1.57;;;;;;;3.00;100.00;100585.66;5011809;28;20652;-78
2023/12/08 06:20:09;;;;;;;1.83;1.83;;;;;;;2.56;100.00;100520.97;4976944;28;20239;-78
2023/12/08 06:22:36;;;;;;;1.20;1.20;;;;;;;2.85;100.00;100569.50;5011489;28;20211;-78
2023/12/08 06:25:04;;;;;;;0.80;0.80;;;;;;;2.89;100.00;100571.44;5011218;28;20604;-76
2023/12/08 06:27:31;;;;;;;0.80;0.80;;;;;;;2.93;100.00;100597.25;4992932;28;20201;-77
2023/12/08 06:29:58;;;;;;;1.17;1.17;;;;;;;3.12;100.00;100591.44;5011045;28;20216;-76
2023/12/08 06:32:26;;;;;;;1.10;1.10;;;;;;;2.97;100.00;100557.31;4992246;28;20196;-78
2023/12/08 06:34:53;;;;;;;2.00;1.83;;;;;;;3.10;100.00;100602.41;5011223;28;20287;-77
2023/12/08 06:37:20;;;;;;;3.90;2.00;;;;;;;2.98;100.00;100606.09;4997538;28;20200;-77
2023/12/08 06:39:47;;;;;;;1.30;1.30;;;;;;;3.20;100.00;100600.41;5011473;28;20200;-77
2023/12/08 06:42:15;;;;;;;9.93;2.93;;;;;;;3.08;100.00;100610.00;5011339;28;20217;-78
2023/12/08 06:44:42;;;;;;;1.83;1.83;;;;;;;3.15;100.00;100611.19;5010600;28;20197;-77
2023/12/08 06:47:09;;;;;;;1.10;1.10;;;;;;;3.28;100.00;100613.63;5011376;28;20201;-77
2023/12/08 06:49:36;;;;;;;0.80;0.80;;;;;;;3.15;100.00;100616.31;5000054;28;20232;-75
2023/12/08 06:52:03;;;;;;;0.93;0.93;;;;;;;3.11;100.00;100574.28;5010877;28;20205;-75
2023/12/08 06:54:29;;;;;;;2.77;2.67;;;;;;;3.43;100.00;100622.09;5010757;28;20208;-76
2023/12/08 06:56:56;;;;;;;2.57;2.30;;;;;;;3.48;100.00;100621.53;5011123;28;20224;-76
2023/12/08 06:59:24;;;;;;;1.40;1.40;;;;;;;3.50;100.00;100630.19;5011011;28;20200;-76
2023/12/08 07:01:51;;;;;;;1.77;1.77;;;;;;;3.47;100.00;100637.72;5010811;28;20278;-76
2023/12/08 07:04:18;;;;;;;2.10;1.93;;;;;;;3.29;100.00;100600.88;5010809;28;20518;-76
2023/12/08 07:06:45;;;;;;;1.00;1.00;;;;;;;3.29;100.00;100611.13;5004829;28;20653;-76
2023/12/08 07:09:12;;;;;;;1.47;1.47;;;;;;;3.53;100.00;100636.28;5003774;28;20648;-76
2023/12/08 07:11:38;;;;;;;2.17;2.07;;;;;;;3.59;100.00;100639.16;4997152;28;20224;-76
2023/12/08 07:14:05;;;;;;;1.00;1.00;;;;;;;3.58;100.00;100630.56;5010603;28;20204;-76
2023/12/08 07:16:33;;;;;;;0.83;0.83;;;;;;;3.57;100.00;100635.66;5010944;28;20228;-76
2023/12/08 07:19:00;;;;;;;1.30;1.30;;;;;;;3.48;100.00;100634.34;5010779;28;20251;-76
2023/12/08 07:21:27;;;;;;;0.87;0.87;;;;;;;3.54;100.00;100643.16;5010946;28;20208;-77
2023/12/08 07:23:53;;;;;;;0.97;0.97;;;;;;;3.52;100.00;100637.97;5005510;28;20213;-76
2023/12/08 07:26:20;;;;;;;1.30;1.30;;;;;;;3.55;100.00;100637.22;4973470;28;20217;-75
2023/12/08 07:28:47;;;;;;;1.10;1.10;;;;;;;3.72;100.00;100644.09;5010846;28;20209;-76
2023/12/08 07:31:14;;;;;;;1.30;1.30;;;;;;;3.07;100.00;100528.81;4973084;28;20213;-77
2023/12/08 07:33:42;;;;;;;3.43;3.23;;;;;;;3.51;100.00;100636.19;5006612;28;20209;-79
2023/12/08 07:36:09;;;;;;;1.50;1.50;;;;;;;3.52;100.00;100635.41;5000471;28;20717;-79
2023/12/08 07:38:36;;;;;;;0.77;0.77;;;;;;;3.38;100.00;100595.34;5007488;28;20217;-76
2023/12/08 07:41:03;;;;;;;1.10;1.10;;;;;;;3.29;100.00;100585.50;5010791;28;20263;-78
2023/12/08 07:43:30;;;;;;;1.40;1.40;;;;;;;3.59;100.00;100642.59;5010662;28;20232;-78
2023/12/08 07:45:56;;;;;;;0.73;0.73;;;;;;;3.76;100.00;100636.66;5010694;28;20210;-77
2023/12/08 07:48:23;;;;;;;1.20;1.20;;;;;;;3.68;100.00;100637.03;5010684;28;20215;-75
2023/12/08 07:50:51;;;;;;;0.90;0.90;;;;;;;3.89;100.00;100633.00;5010578;28;20215;-76
2023/12/08 07:53:18;;;;;;;0.93;0.93;;;;;;;3.75;100.00;100600.66;5010418;28;20205;-76
2023/12/08 07:55:45;;;;;;;1.00;1.00;;;;;;;3.62;100.00;100616.22;5012192;28;20228;-76
2023/12/08 07:58:11;;;;;;;0.73;0.73;;;;;;;3.81;100.00;100634.31;4979856;28;20204;-76
2023/12/08 08:00:38;;;;;;;0.80;0.80;;;;;;;3.17;100.00;100538.78;4992806;28;20788;-76
2023/12/08 08:03:05;;;;;;;1.23;1.23;;;;;;;3.81;100.00;100642.91;5012274;28;20208;-76
2023/12/08 08:05:32;;;;;;;0.80;0.80;;;;;;;3.77;100.00;100634.97;5014278;28;20247;-76
2023/12/08 08:08:02;;;;;;;1.23;1.23;;;;;;;3.65;100.00;100616.38;5014156;28;20579;-76
2023/12/08 08:10:29;;;;;;;1.10;1.10;;;;;;;3.71;100.00;100643.22;5014270;28;20341;-76
2023/12/08 08:12:55;;;;;;;1.77;1.77;;;;;;;3.74;100.00;100645.06;5013504;28;20209;-77
2023/12/08 08:15:22;;;;;;;1.40;1.40;;;;;;;3.97;100.00;100640.28;4979429;28;20703;-76
2023/12/08 08:17:49;;;;;;;1.57;1.57;;;;;;;3.79;100.00;100634.22;5014111;28;20536;-71
2023/12/08 08:20:16;;;;;;;2.20;1.73;;;;;;;3.92;100.00;100643.44;5013908;28;20236;-79
2023/12/08 08:22:43;;;;;;;1.27;1.27;;;;;;;4.05;100.00;100650.94;5013926;28;20220;-76
2023/12/08 08:25:11;;;;;;;1.50;1.50;;;;;;;4.23;100.00;100644.16;5013570;28;20624;-75
2023/12/08 08:27:39;;;;;;;1.10;1.10;;;;;;;4.06;100.00;100609.09;5014080;28;20220;-78
2023/12/08 08:30:07;;;;;;;1.00;1.00;;;;;;;4.31;100.00;100652.22;5014218;28;20347;-77
2023/12/08 08:32:34;;;;;;;0.90;0.90;;;;;;;4.18;100.00;100614.78;5014141;28;20205;-78
2023/12/08 08:35:00;;;;;;;1.00;1.00;;;;;;;4.22;100.00;100652.63;4995494;28;20208;-78
2023/12/08 08:37:27;;;;;;;2.20;2.10;;;;;;;3.58;100.00;100622.88;5010998;28;20225;-78
2023/12/08 08:39:54;;;;;;;2.03;1.93;;;;;;;3.97;100.00;100653.09;5003212;28;20213;-78
2023/12/08 08:42:22;;;;;;;0.97;0.97;;;;;;;3.84;100.00;100652.41;5012205;28;20212;-77
2023/12/08 08:44:49;;;;;;;2.03;1.93;;;;;;;3.50;100.00;100622.47;5001629;28;20201;-76
2023/12/08 08:47:18;;;;;;;1.73;1.73;;;;;;;3.52;100.00;100652.44;5013963;28;20240;-76
2023/12/08 08:49:45;;;;;;;0.90;0.90;;;;;;;2.96;100.00;100560.72;5011552;28;20290;-78
2023/12/08 08:52:12;;;;;;;0.73;0.73;;;;;;;3.31;100.00;100647.97;5013504;28;20204;-78
2023/12/08 08:54:39;;;;;;;2.30;1.47;;;;;;;3.37;100.00;100645.72;5011792;28;20669;-76
2023/12/08 08:57:06;;;;;;;2.10;1.40;;;;;;;3.41;100.00;100637.41;5013214;28;20291;-75
2023/12/08 08:59:34;;;;;;;1.10;1.10;;;;;;;3.36;100.00;100610.66;5013266;28;20205;-76
2023/12/08 09:02:01;;;;;;;1.20;1.20;;;;;;;3.52;100.00;100619.13;5013217;28;20200;-75
2023/12/08 09:04:27;;;;;;;0.97;0.97;;;;;;;3.58;100.00;100629.69;5012882;28;20689;-74
2023/12/08 09:06:56;;;;;;;1.77;1.77;;;;;;;3.69;100.00;100636.25;5011918;28;20212;-75
2023/12/08 09:09:22;;;;;;;2.23;2.13;;;;;;;3.70;100.00;100643.16;5012980;28;20204;-74
2023/12/08 09:11:49;;;;;;;0.80;0.80;;;;;;;3.84;100.00;100630.22;5012942;28;20422;-75
2023/12/08 09:14:16;;;;;;;2.17;2.00;;;;;;;3.89;100.00;100633.00;5013168;28;20212;-75
2023/12/08 09:16:46;;;;;;;2.40;2.30;;;;;;;3.58;100.00;100632.25;5012816;28;20712;-74
2023/12/08 09:19:13;;;;;;;1.93;1.87;;;;;;;3.66;100.00;100618.16;5012861;28;20235;-73
2023/12/08 09:21:40;;;;;;;1.63;1.63;;;;;;;3.73;100.00;100622.78;5012660;28;20197;-74
2023/12/08 09:24:07;;;;;;;1.00;1.00;;;;;;;3.71;100.00;100617.56;4994747;28;20236;-73
2023/12/08 09:26:34;;;;;;;1.00;1.00;;;;;;;3.73;100.00;100610.84;5013025;28;20197;-74
2023/12/08 09:29:00;;;;;;;1.20;1.20;;;;;;;3.92;100.00;100607.53;5013079;28;20200;-74
2023/12/08 09:31:28;;;;;;;1.20;1.20;;;;;;;3.80;100.00;100584.72;5003379;28;20209;-77
2023/12/08 09:33:57;;;;;;;1.10;1.10;;;;;;;3.73;100.00;100600.59;4996143;28;20308;-75
2023/12/08 09:36:24;;;;;;;1.63;1.53;;;;;;;3.64;100.00;100594.97;4999553;28;20706;-72
2023/12/08 09:38:51;;;;;;;1.57;1.57;;;;;;;3.55;100.00;100589.41;4999935;28;20611;-74
2023/12/08 09:41:18;;;;;;;1.50;1.50;;;;;;;3.84;100.00;100586.63;4993615;28;20685;-75
2023/12/08 09:43:55;;;;;;;1.77;1.67;;;;;;;3.59;100.00;100569.94;5011986;28;20203;-76
2023/12/08 09:46:24;;;;;;;1.77;1.77;;;;;;;3.77;100.00;100581.09;4999701;28;20205;-76
2023/12/08 09:48:54;;;;;;;0.93;0.93;;;;;;;3.79;100.00;100580.38;5012181;28;20235;-76
2023/12/08 09:51:22;;;;;;;1.00;1.00;;;;;;;3.73;100.00;100568.94;5012719;28;20759;-76
2023/12/08 09:53:49;;;;;;;1.10;1.00;;;;;;;3.54;100.00;100546.63;5012019;28;20201;-72
2023/12/08 09:56:19;;;;;;;1.10;1.10;;;;;;;3.00;100.00;100396.13;5001635;28;20621;-77
2023/12/08 09:58:46;;;;;;;1.10;1.10;;;;;;;3.63;100.00;100500.06;5009263;28;20743;-76
2023/12/08 10:01:16;;;;;;;10.40;3.13;;;;;;;4.03;100.00;100555.06;5012641;28;20212;-76
2023/12/08 10:03:44;;;;;;;1.00;1.00;;;;;;;4.06;100.00;100554.31;5011666;28;20296;-76
2023/12/08 10:06:11;;;;;;;1.43;1.43;;;;;;;4.00;100.00;100542.94;5012041;28;20236;-76
2023/12/08 10:08:39;;;;;;;1.20;1.20;;;;;;;4.18;100.00;100536.94;5012285;28;20205;-76
2023/12/08 10:11:06;;;;;;;1.80;1.73;;;;;;;3.99;100.00;100532.63;5011780;28;20621;-75
2023/12/08 10:13:33;;;;;;;1.40;1.40;;;;;;;3.94;100.00;100508.44;5008999;28;20291;-76
2023/12/08 10:16:00;;;;;;;2.07;1.97;;;;;;;4.13;100.00;100541.88;4993309;28;20233;-75
2023/12/08 10:18:28;;;;;;;1.23;1.23;;;;;;;4.37;100.00;100548.16;4966765;28;20693;-75
2023/12/08 10:21:14;;;;;;;2.27;2.17;;;;;;;4.69;100.00;100548.75;5006039;28;20240;-77
2023/12/08 10:23:42;;;;;;;1.17;1.17;;;;;;;4.90;100.00;100540.31;5003213;28;20283;-77
2023/12/08 10:26:11;;;;;;;0.87;0.87;;;;;;;4.68;100.00;100503.31;4961283;28;20296;-74
2023/12/08 10:28:38;;;;;;;1.47;1.47;;;;;;;4.54;100.00;100525.81;5011468;28;20239;-75
2023/12/08 10:31:05;;;;;;;0.80;0.80;;;;;;;4.93;100.00;100526.72;5011334;28;20657;-75
2023/12/08 10:33:32;;;;;;;0.73;0.73;;;;;;;5.10;100.00;100530.06;5011144;28;20266;-75
2023/12/08 10:36:03;;;;;;;1.53;1.53;;;;;;;5.08;100.00;100536.81;5011379;28;20308;-75
2023/12/08 10:38:29;;;;;;;0.80;0.80;;;;;;;5.30;100.00;100522.38;5011582;28;20201;-75
2023/12/08 10:40:58;;;;;;;1.03;1.03;;;;;;;5.05;100.00;100481.03;4976906;28;20204;-76
2023/12/08 10:43:25;;;;;;;1.10;1.10;;;;;;;5.26;100.00;100506.75;5011479;28;20208;-75
2023/12/08 10:45:52;;;;;;;1.03;1.03;;;;;;;4.94;100.00;100528.50;5011363;28;20201;-75
2023/12/08 10:48:20;;;;;;;1.77;1.67;;;;;;;4.93;100.00;100526.72;5011253;28;20204;-76
2023/12/08 10:50:49;;;;;;;4.10;1.77;;;;;;;5.04;100.00;100522.94;5011259;28;20200;-77
2023/12/08 10:53:18;;;;;;;1.30;1.30;;;;;;;4.70;100.00;100486.31;5010921;28;20296;-76
2023/12/08 10:55:51;;;;;;;5.50;2.60;;;;;;;4.42;100.00;100474.78;5011246;28;20704;-75
2023/12/08 10:58:22;;;;;;;1.10;1.10;;;;;;;5.65;100.00;100494.69;5011571;28;20209;-74
2023/12/08 11:00:51;;;;;;;27.07;3.13;;;;;;;5.20;100.00;100497.13;5011392;28;20279;-74
2023/12/08 11:03:20;;;;;;;0.90;0.90;;;;;;;4.85;100.00;100497.28;5010789;28;20304;-74
2023/12/08 11:05:54;;;;;;;3.70;2.40;;;;;;;4.70;100.00;100496.59;5010801;28;20590;-74
2023/12/08 11:08:21;;;;;;;0.90;0.90;;;;;;;4.73;100.00;100495.03;4997219;28;20206;-74
2023/12/08 11:10:52;;;;;;;1.67;1.60;;;;;;;4.78;100.00;100496.09;5010697;28;20227;-73
2023/12/08 11:13:26;;;;;;;2.07;1.97;;;;;;;4.94;100.00;100483.13;5010057;28;20204;-74
2023/12/08 11:16:06;;;;;;;1.63;1.60;;;;;;;4.61;100.00;100462.78;4997110;28;20229;-73
2023/12/08 11:18:36;;;;;;;2.23;2.03;;;;;;;4.68;100.00;100487.91;4973159;28;20233;-73
2023/12/08 11:21:04;;;;;;;1.27;1.27;;;;;;;4.69;100.00;100489.69;5010604;28;20215;-73
2023/12/08 11:23:32;;;;;;;1.97;1.97;;;;;;;4.75;100.00;100489.94;4998002;28;20212;-72
2023/12/08 11:26:08;;;;;;;1.47;1.47;;;;;;;4.82;100.00;100471.41;5010555;28;20205;-73